Terminal Aerodrome Forecast
Issued by NWS Bismarck, ND

Home | Current Version | Previous Version | Text Only | Print | Product List | Glossary Off
Versions: 1 2 3 4 5 6 7 8 9 10 11 12 13 14 15 16 17 18 19

000
FTUS43 KBIS 251100 RRA
TAFBIS
TAF
KBIS 251142Z 2512/2612 28005KT P6SM SCT012 BKN020 OVC035
      TEMPO 2513/2515 SCT020
     FM251500 19007KT P6SM SCT050 SCT080
     FM251600 16009KT 4SM -SN OVC020
     FM251800 18010KT 1SM -SN OVC007
      TEMPO 2519/2522 1/2SM SN OVC005
     FM260000 33014KT 3SM -SN OVC009
     FM260300 33020G28KT 4SM -SN BLSN OVC009=

USA.gov is the U.S. government's official web portal to all federal, state and local government web resources and services.